Terminal Aerodrome Forecast
Issued by NWS Huntsville, AL

Home | Current Version | Previous Version | Text Only | Print | Product List | Glossary On
Versions: 1 2 3 4 5 6 7 8 9 10 11 12 13
000
FTUS44 KHUN 291130
TAFHSV
TAF
KHSV 291130Z 2912/3012 VRB03KT P6SM SCT250
     FM291700 14007KT P6SM SCT250
     FM292100 20012KT P6SM BKN120
     FM300000 12005KT P6SM OVC100=

USA.gov is the U.S. government's official web portal to all federal, state and local government web resources and services.